Etusivu
METAR-TAF:

METAR-TAF

Lentoasemat :

Hillsdale Municipal Airport

Hillsdale, Michigan, Yhdysvallat

Leveyspiiri: 41-55-17N, Pituuspiiri: 084-35-09W, korkeus merenpinnasta: 360 m

Tämänhetkinen sää

Tämä raportti tehtiin 14 minuuttia sitten, kello 15.16 UTC
Tuuli 11 kn idästä/kaakosta puuskistuen 17 kn:hen
Lämpötila 11°C
Kosteus 94%
Ilmanpaine 1015 hPa
Näkyvyys: 16.1 km
Hajanaisia pilviä 2700 ft:n korkeudessa
Hajonneita pilviä 6000 ft:n korkeudessa
Pilvistä 8000 ft:n korkeudessa
heikkoa sadetta

METAR: KJYM 221516Z AUTO 12011G17KT 10SM -RA SCT027 BKN060 OVC080 11/10 A2998 RMK AO2 T01120099

Aika: 11:30 (15:30 UTC)


TAF: puuttuu

Säähavainnot ja -ennusteet yli 4000 lentoasemalta (METAR- ja TAF-raportit).

Käytössä olevat sääasemat on merkitty karttaan keltaisilla ja punaisilla pisteillä.

Aseta hiiri pisteen päälle nähdäksesi sääaseman nimen.

Klikkaa sitten nähdäksesi säähavainnot ja -ennusteet.

Kartan vaihtaminen: klikkaa mustalla rastilla varustettuja vihreitä pisteitä, niin voit zoomata sisään; viivalla varustettua vihreää pistettä, niin voit zoomata ulos tai vihreitä nuolia, niin pääset viereisille kartoille.


METAR-TAF: